Saint Martin, Ohio
Current Conditions -  °F | °C
As of 10:54 AM on Saturday 22 Nov 2014 (Local Time) from KILN Reporting Station
Overcast Overcast  
Wind Chill: 33°   Ceiling: 5500
Heat Index: 40°   Visibility: 10mi
Dew Point: 31°   Wind: 10mph
Humidity: 70%   Direction: 200°SSW
Pressure: 30.25"   Gusts: NA
Location:  39.1737°N, 83.9342°W
Report Text: KILN 221554Z AUTO 20009KT 10SM OVC055 04/M01 A3025 RMK AO2 RAE46 SLP270 P0000 T00441006
Loading
Personal Weather Stations






























Interactive Weather Map New forecast layout! Learn more

10-Day Weather Forecast

Advertisements
Track Severe Weather on mobile